sensor_id;sensor_type;location;lat;lon;timestamp;P1;durP1;ratioP1;P2;durP2;ratioP2
53271;SDS011;39160;48.580;7.756;2023-02-21T00:02:45;7.28;;;4.30;;
53271;SDS011;39160;48.580;7.756;2023-02-21T00:07:54;8.68;;;4.32;;
53271;SDS011;39160;48.580;7.756;2023-02-21T00:13:03;8.73;;;4.85;;
53271;SDS011;39160;48.580;7.756;2023-02-21T00:18:12;6.85;;;3.95;;
53271;SDS011;39160;48.580;7.756;2023-02-21T00:23:21;9.27;;;4.57;;
53271;SDS011;39160;48.580;7.756;2023-02-21T00:28:31;8.95;;;4.15;;
53271;SDS011;39160;48.580;7.756;2023-02-21T00:33:40;7.82;;;4.40;;
53271;SDS011;39160;48.580;7.756;2023-02-21T00:38:50;6.97;;;3.72;;
53271;SDS011;39160;48.580;7.756;2023-02-21T00:43:59;8.82;;;4.82;;
53271;SDS011;39160;48.580;7.756;2023-02-21T00:49:08;7.78;;;3.70;;
53271;SDS011;39160;48.580;7.756;2023-02-21T00:54:17;10.27;;;4.20;;
53271;SDS011;39160;48.580;7.756;2023-02-21T00:59:26;6.88;;;4.00;;
53271;SDS011;39160;48.580;7.756;2023-02-21T01:04:35;8.88;;;4.68;;
53271;SDS011;39160;48.580;7.756;2023-02-21T01:09:44;8.80;;;4.18;;
53271;SDS011;39160;48.580;7.756;2023-02-21T01:14:53;9.25;;;4.50;;
53271;SDS011;39160;48.580;7.756;2023-02-21T01:20:03;6.75;;;4.18;;
53271;SDS011;39160;48.580;7.756;2023-02-21T01:25:12;5.93;;;3.60;;
53271;SDS011;39160;48.580;7.756;2023-02-21T01:30:22;12.70;;;6.03;;
53271;SDS011;39160;48.580;7.756;2023-02-21T01:35:31;8.40;;;4.68;;
53271;SDS011;39160;48.580;7.756;2023-02-21T01:40:40;8.65;;;4.82;;
53271;SDS011;39160;48.580;7.756;2023-02-21T01:45:50;11.30;;;6.20;;
53271;SDS011;39160;48.580;7.756;2023-02-21T01:51:03;14.15;;;5.60;;
53271;SDS011;39160;48.580;7.756;2023-02-21T01:56:14;11.52;;;5.25;;
53271;SDS011;39160;48.580;7.756;2023-02-21T02:01:48;10.52;;;5.38;;
53271;SDS011;39160;48.580;7.756;2023-02-21T02:06:54;12.60;;;6.38;;
53271;SDS011;39160;48.580;7.756;2023-02-21T02:48:20;9.15;;;4.65;;
53271;SDS011;39160;48.580;7.756;2023-02-21T02:53:21;8.32;;;4.75;;
53271;SDS011;39160;48.580;7.756;2023-02-21T02:58:15;12.00;;;5.47;;
53271;SDS011;39160;48.580;7.756;2023-02-21T03:03:20;9.18;;;4.32;;
53271;SDS011;39160;48.580;7.756;2023-02-21T03:13:42;5.05;;;3.53;;
53271;SDS011;39160;48.580;7.756;2023-02-21T03:18:47;6.30;;;3.92;;
53271;SDS011;39160;48.580;7.756;2023-02-21T03:23:48;6.10;;;3.75;;
53271;SDS011;39160;48.580;7.756;2023-02-21T03:28:41;6.63;;;3.67;;
53271;SDS011;39160;48.580;7.756;2023-02-21T03:33:33;7.50;;;4.78;;
53271;SDS011;39160;48.580;7.756;2023-02-21T03:38:29;7.65;;;3.53;;
53271;SDS011;39160;48.580;7.756;2023-02-21T03:43:20;4.07;;;3.35;;
53271;SDS011;39160;48.580;7.756;2023-02-21T03:48:11;6.63;;;3.97;;
53271;SDS011;39160;48.580;7.756;2023-02-21T03:53:02;5.75;;;3.70;;
53271;SDS011;39160;48.580;7.756;2023-02-21T03:57:53;6.63;;;3.10;;
53271;SDS011;39160;48.580;7.756;2023-02-21T04:02:43;5.38;;;2.95;;
53271;SDS011;39160;48.580;7.756;2023-02-21T04:07:34;6.50;;;3.53;;
53271;SDS011;39160;48.580;7.756;2023-02-21T04:12:25;3.75;;;2.53;;
53271;SDS011;39160;48.580;7.756;2023-02-21T04:17:16;3.85;;;2.92;;
53271;SDS011;39160;48.580;7.756;2023-02-21T04:22:07;5.45;;;3.20;;
53271;SDS011;39160;48.580;7.756;2023-02-21T04:26:57;4.75;;;3.67;;
53271;SDS011;39160;48.580;7.756;2023-02-21T04:31:48;6.60;;;3.88;;
53271;SDS011;39160;48.580;7.756;2023-02-21T04:36:39;7.43;;;3.42;;
53271;SDS011;39160;48.580;7.756;2023-02-21T04:41:29;8.40;;;2.85;;
53271;SDS011;39160;48.580;7.756;2023-02-21T04:46:20;5.68;;;3.22;;
53271;SDS011;39160;48.580;7.756;2023-02-21T04:51:11;4.35;;;2.88;;
53271;SDS011;39160;48.580;7.756;2023-02-21T04:56:03;5.38;;;3.03;;
53271;SDS011;39160;48.580;7.756;2023-02-21T05:00:54;5.35;;;3.45;;
53271;SDS011;39160;48.580;7.756;2023-02-21T05:05:44;3.53;;;2.20;;
53271;SDS011;39160;48.580;7.756;2023-02-21T05:10:35;7.40;;;3.30;;
53271;SDS011;39160;48.580;7.756;2023-02-21T05:15:26;6.75;;;2.85;;
53271;SDS011;39160;48.580;7.756;2023-02-21T05:20:16;8.85;;;3.45;;
53271;SDS011;39160;48.580;7.756;2023-02-21T05:25:21;8.00;;;3.63;;
53271;SDS011;39160;48.580;7.756;2023-02-21T05:30:12;9.98;;;3.72;;
53271;SDS011;39160;48.580;7.756;2023-02-21T05:35:06;6.20;;;3.30;;
53271;SDS011;39160;48.580;7.756;2023-02-21T05:39:58;7.28;;;3.50;;
53271;SDS011;39160;48.580;7.756;2023-02-21T05:44:49;5.30;;;4.43;;
53271;SDS011;39160;48.580;7.756;2023-02-21T05:49:40;7.50;;;3.58;;
53271;SDS011;39160;48.580;7.756;2023-02-21T05:54:31;7.20;;;3.92;;
53271;SDS011;39160;48.580;7.756;2023-02-21T05:59:21;6.75;;;3.40;;
53271;SDS011;39160;48.580;7.756;2023-02-21T06:04:12;5.55;;;3.15;;
53271;SDS011;39160;48.580;7.756;2023-02-21T06:09:03;5.07;;;3.70;;
53271;SDS011;39160;48.580;7.756;2023-02-21T06:13:55;4.18;;;3.00;;
53271;SDS011;39160;48.580;7.756;2023-02-21T06:18:51;3.63;;;2.80;;
53271;SDS011;39160;48.580;7.756;2023-02-21T06:23:43;4.35;;;3.03;;
53271;SDS011;39160;48.580;7.756;2023-02-21T06:28:34;7.78;;;3.55;;
53271;SDS011;39160;48.580;7.756;2023-02-21T06:33:24;3.83;;;2.67;;
53271;SDS011;39160;48.580;7.756;2023-02-21T06:38:15;7.72;;;3.25;;
53271;SDS011;39160;48.580;7.756;2023-02-21T06:43:06;3.45;;;2.88;;
53271;SDS011;39160;48.580;7.756;2023-02-21T06:47:57;4.40;;;3.30;;
53271;SDS011;39160;48.580;7.756;2023-02-21T06:52:47;6.72;;;3.95;;
53271;SDS011;39160;48.580;7.756;2023-02-21T06:57:38;3.78;;;2.70;;
53271;SDS011;39160;48.580;7.756;2023-02-21T07:02:29;8.40;;;3.92;;
53271;SDS011;39160;48.580;7.756;2023-02-21T07:07:19;9.93;;;3.13;;
53271;SDS011;39160;48.580;7.756;2023-02-21T07:12:10;7.63;;;4.28;;
53271;SDS011;39160;48.580;7.756;2023-02-21T07:17:01;7.28;;;3.83;;
53271;SDS011;39160;48.580;7.756;2023-02-21T07:21:51;6.82;;;4.10;;
53271;SDS011;39160;48.580;7.756;2023-02-21T07:26:42;8.60;;;4.47;;
53271;SDS011;39160;48.580;7.756;2023-02-21T07:31:33;9.57;;;4.55;;
53271;SDS011;39160;48.580;7.756;2023-02-21T07:36:24;10.40;;;4.30;;
53271;SDS011;39160;48.580;7.756;2023-02-21T07:41:15;8.68;;;4.53;;
53271;SDS011;39160;48.580;7.756;2023-02-21T07:46:11;7.45;;;4.50;;
53271;SDS011;39160;48.580;7.756;2023-02-21T07:51:03;8.00;;;4.88;;
53271;SDS011;39160;48.580;7.756;2023-02-21T08:00:50;11.02;;;3.97;;
53271;SDS011;39160;48.580;7.756;2023-02-21T08:05:41;11.68;;;5.93;;
53271;SDS011;39160;48.580;7.756;2023-02-21T08:10:31;9.48;;;5.57;;
53271;SDS011;39160;48.580;7.756;2023-02-21T08:15:22;14.00;;;5.97;;
53271;SDS011;39160;48.580;7.756;2023-02-21T08:20:13;11.13;;;6.15;;
53271;SDS011;39160;48.580;7.756;2023-02-21T08:25:04;10.23;;;5.68;;
53271;SDS011;39160;48.580;7.756;2023-02-21T08:29:55;10.90;;;5.70;;
53271;SDS011;39160;48.580;7.756;2023-02-21T08:34:47;9.00;;;6.22;;
53271;SDS011;39160;48.580;7.756;2023-02-21T08:39:38;12.48;;;5.55;;
53271;SDS011;39160;48.580;7.756;2023-02-21T08:44:28;16.00;;;10.55;;
53271;SDS011;39160;48.580;7.756;2023-02-21T08:49:19;21.27;;;10.40;;
53271;SDS011;39160;48.580;7.756;2023-02-21T08:54:10;10.77;;;6.20;;
53271;SDS011;39160;48.580;7.756;2023-02-21T08:59:01;9.43;;;6.30;;
53271;SDS011;39160;48.580;7.756;2023-02-21T09:03:52;9.07;;;6.15;;
53271;SDS011;39160;48.580;7.756;2023-02-21T09:08:43;8.90;;;5.57;;
53271;SDS011;39160;48.580;7.756;2023-02-21T09:13:34;7.68;;;4.93;;
53271;SDS011;39160;48.580;7.756;2023-02-21T09:18:25;7.47;;;4.15;;
53271;SDS011;39160;48.580;7.756;2023-02-21T09:23:19;9.95;;;4.30;;
53271;SDS011;39160;48.580;7.756;2023-02-21T09:28:10;10.60;;;4.88;;
53271;SDS011;39160;48.580;7.756;2023-02-21T09:33:01;7.25;;;4.60;;
53271;SDS011;39160;48.580;7.756;2023-02-21T09:37:52;9.93;;;5.03;;
53271;SDS011;39160;48.580;7.756;2023-02-21T09:42:42;7.75;;;4.85;;
53271;SDS011;39160;48.580;7.756;2023-02-21T09:47:34;11.30;;;4.82;;
53271;SDS011;39160;48.580;7.756;2023-02-21T09:52:35;8.50;;;4.25;;
53271;SDS011;39160;48.580;7.756;2023-02-21T09:57:27;7.97;;;4.63;;
53271;SDS011;39160;48.580;7.756;2023-02-21T10:07:44;7.75;;;5.00;;
53271;SDS011;39160;48.580;7.756;2023-02-21T10:17:40;5.63;;;4.30;;
53271;SDS011;39160;48.580;7.756;2023-02-21T10:22:37;5.85;;;4.00;;
53271;SDS011;39160;48.580;7.756;2023-02-21T10:27:31;7.20;;;4.05;;
53271;SDS011;39160;48.580;7.756;2023-02-21T10:32:22;5.50;;;4.70;;
53271;SDS011;39160;48.580;7.756;2023-02-21T10:42:46;5.10;;;3.60;;
53271;SDS011;39160;48.580;7.756;2023-02-21T10:52:46;9.95;;;4.93;;
53271;SDS011;39160;48.580;7.756;2023-02-21T10:57:42;5.85;;;3.60;;
53271;SDS011;39160;48.580;7.756;2023-02-21T11:02:38;5.38;;;3.17;;
53271;SDS011;39160;48.580;7.756;2023-02-21T11:07:33;8.15;;;4.85;;
53271;SDS011;39160;48.580;7.756;2023-02-21T11:12:24;6.28;;;3.10;;
53271;SDS011;39160;48.580;7.756;2023-02-21T11:22:14;5.50;;;2.72;;
53271;SDS011;39160;48.580;7.756;2023-02-21T11:27:06;4.97;;;2.67;;
53271;SDS011;39160;48.580;7.756;2023-02-21T11:31:56;4.95;;;2.65;;
53271;SDS011;39160;48.580;7.756;2023-02-21T11:36:47;5.93;;;3.47;;
53271;SDS011;39160;48.580;7.756;2023-02-21T11:46:47;4.95;;;2.80;;
53271;SDS011;39160;48.580;7.756;2023-02-21T11:51:45;4.60;;;3.00;;
53271;SDS011;39160;48.580;7.756;2023-02-21T11:56:48;8.18;;;2.90;;
53271;SDS011;39160;48.580;7.756;2023-02-21T12:01:57;5.25;;;2.75;;
53271;SDS011;39160;48.580;7.756;2023-02-21T12:12:17;6.63;;;2.53;;
53271;SDS011;39160;48.580;7.756;2023-02-21T12:42:53;5.63;;;2.35;;
53271;SDS011;39160;48.580;7.756;2023-02-21T12:58:01;5.03;;;2.35;;
53271;SDS011;39160;48.580;7.756;2023-02-21T13:07:59;4.68;;;2.33;;
53271;SDS011;39160;48.580;7.756;2023-02-21T13:13:14;5.85;;;2.70;;
53271;SDS011;39160;48.580;7.756;2023-02-21T13:18:17;3.97;;;2.40;;
53271;SDS011;39160;48.580;7.756;2023-02-21T13:29:02;2.63;;;2.30;;
53271;SDS011;39160;48.580;7.756;2023-02-21T13:39:04;4.22;;;2.53;;
53271;SDS011;39160;48.580;7.756;2023-02-21T13:44:05;6.32;;;2.50;;
53271;SDS011;39160;48.580;7.756;2023-02-21T13:54:31;4.15;;;2.13;;
53271;SDS011;39160;48.580;7.756;2023-02-21T14:04:48;3.53;;;2.08;;
53271;SDS011;39160;48.580;7.756;2023-02-21T14:09:41;3.47;;;1.95;;
53271;SDS011;39160;48.580;7.756;2023-02-21T14:14:36;6.97;;;1.98;;
53271;SDS011;39160;48.580;7.756;2023-02-21T14:19:36;5.45;;;2.15;;
53271;SDS011;39160;48.580;7.756;2023-02-21T14:24:37;2.42;;;1.48;;
53271;SDS011;39160;48.580;7.756;2023-02-21T14:39:40;4.40;;;1.83;;
53271;SDS011;39160;48.580;7.756;2023-02-21T14:49:42;3.92;;;1.83;;
53271;SDS011;39160;48.580;7.756;2023-02-21T15:04:49;4.57;;;2.60;;
53271;SDS011;39160;48.580;7.756;2023-02-21T15:10:04;6.15;;;1.90;;
53271;SDS011;39160;48.580;7.756;2023-02-21T15:15:04;3.45;;;2.17;;
53271;SDS011;39160;48.580;7.756;2023-02-21T15:20:03;6.22;;;3.03;;
53271;SDS011;39160;48.580;7.756;2023-02-21T15:30:04;4.05;;;2.22;;
53271;SDS011;39160;48.580;7.756;2023-02-21T15:35:12;6.22;;;2.60;;
53271;SDS011;39160;48.580;7.756;2023-02-21T15:40:16;5.03;;;2.58;;
53271;SDS011;39160;48.580;7.756;2023-02-21T15:55:32;3.38;;;2.10;;
53271;SDS011;39160;48.580;7.756;2023-02-21T16:00:39;3.67;;;2.10;;
53271;SDS011;39160;48.580;7.756;2023-02-21T16:05:31;4.60;;;1.85;;
53271;SDS011;39160;48.580;7.756;2023-02-21T16:10:22;4.95;;;3.00;;
53271;SDS011;39160;48.580;7.756;2023-02-21T16:21:01;4.78;;;2.25;;
53271;SDS011;39160;48.580;7.756;2023-02-21T16:25:33;4.03;;;2.40;;
53271;SDS011;39160;48.580;7.756;2023-02-21T16:30:28;3.95;;;2.05;;
53271;SDS011;39160;48.580;7.756;2023-02-21T16:35:21;5.80;;;2.03;;
53271;SDS011;39160;48.580;7.756;2023-02-21T16:40:18;5.35;;;2.22;;
53271;SDS011;39160;48.580;7.756;2023-02-21T16:45:13;3.35;;;2.40;;
53271;SDS011;39160;48.580;7.756;2023-02-21T16:50:04;6.35;;;2.30;;
53271;SDS011;39160;48.580;7.756;2023-02-21T16:55:04;3.97;;;2.25;;
53271;SDS011;39160;48.580;7.756;2023-02-21T16:59:55;4.68;;;2.90;;
53271;SDS011;39160;48.580;7.756;2023-02-21T17:04:45;5.93;;;2.63;;
53271;SDS011;39160;48.580;7.756;2023-02-21T17:09:36;3.60;;;2.45;;
53271;SDS011;39160;48.580;7.756;2023-02-21T17:14:28;7.28;;;2.20;;
53271;SDS011;39160;48.580;7.756;2023-02-21T17:19:19;6.15;;;2.35;;
53271;SDS011;39160;48.580;7.756;2023-02-21T17:24:14;3.10;;;2.10;;
53271;SDS011;39160;48.580;7.756;2023-02-21T17:29:05;5.57;;;2.40;;
53271;SDS011;39160;48.580;7.756;2023-02-21T17:33:56;8.30;;;2.83;;
53271;SDS011;39160;48.580;7.756;2023-02-21T17:38:47;5.72;;;2.53;;
53271;SDS011;39160;48.580;7.756;2023-02-21T17:43:38;6.38;;;3.33;;
53271;SDS011;39160;48.580;7.756;2023-02-21T17:48:29;4.50;;;3.47;;
53271;SDS011;39160;48.580;7.756;2023-02-21T17:53:21;10.32;;;4.07;;
53271;SDS011;39160;48.580;7.756;2023-02-21T17:58:11;10.27;;;4.55;;
53271;SDS011;39160;48.580;7.756;2023-02-21T18:03:02;8.60;;;4.03;;
53271;SDS011;39160;48.580;7.756;2023-02-21T18:07:55;10.55;;;5.00;;
53271;SDS011;39160;48.580;7.756;2023-02-21T18:12:46;7.60;;;4.22;;
53271;SDS011;39160;48.580;7.756;2023-02-21T18:17:37;6.38;;;3.63;;
53271;SDS011;39160;48.580;7.756;2023-02-21T18:22:29;7.82;;;3.97;;
53271;SDS011;39160;48.580;7.756;2023-02-21T18:27:20;9.02;;;4.75;;
53271;SDS011;39160;48.580;7.756;2023-02-21T18:32:11;9.38;;;4.72;;
53271;SDS011;39160;48.580;7.756;2023-02-21T18:37:01;7.90;;;4.85;;
53271;SDS011;39160;48.580;7.756;2023-02-21T18:41:52;8.35;;;4.85;;
53271;SDS011;39160;48.580;7.756;2023-02-21T18:46:52;11.18;;;5.07;;
53271;SDS011;39160;48.580;7.756;2023-02-21T18:51:44;9.25;;;5.22;;
53271;SDS011;39160;48.580;7.756;2023-02-21T18:56:35;12.00;;;5.93;;
53271;SDS011;39160;48.580;7.756;2023-02-21T19:01:25;22.52;;;11.85;;
53271;SDS011;39160;48.580;7.756;2023-02-21T19:06:16;20.20;;;8.63;;
53271;SDS011;39160;48.580;7.756;2023-02-21T19:11:09;16.98;;;7.40;;
53271;SDS011;39160;48.580;7.756;2023-02-21T19:16:01;10.88;;;6.85;;
53271;SDS011;39160;48.580;7.756;2023-02-21T19:20:52;11.35;;;6.10;;
53271;SDS011;39160;48.580;7.756;2023-02-21T19:25:43;13.85;;;6.57;;
53271;SDS011;39160;48.580;7.756;2023-02-21T19:30:34;13.57;;;7.93;;
53271;SDS011;39160;48.580;7.756;2023-02-21T19:35:28;18.55;;;8.23;;
53271;SDS011;39160;48.580;7.756;2023-02-21T19:40:20;15.85;;;6.60;;
53271;SDS011;39160;48.580;7.756;2023-02-21T19:45:12;16.65;;;7.78;;
53271;SDS011;39160;48.580;7.756;2023-02-21T19:50:03;17.38;;;8.52;;
53271;SDS011;39160;48.580;7.756;2023-02-21T19:54:54;15.85;;;7.88;;
53271;SDS011;39160;48.580;7.756;2023-02-21T19:59:45;19.55;;;9.10;;
53271;SDS011;39160;48.580;7.756;2023-02-21T20:04:35;16.58;;;7.90;;
53271;SDS011;39160;48.580;7.756;2023-02-21T20:09:26;12.75;;;7.97;;
53271;SDS011;39160;48.580;7.756;2023-02-21T20:14:17;16.70;;;8.10;;
53271;SDS011;39160;48.580;7.756;2023-02-21T20:19:08;11.70;;;7.25;;
53271;SDS011;39160;48.580;7.756;2023-02-21T20:24:00;17.83;;;8.95;;
53271;SDS011;39160;48.580;7.756;2023-02-21T20:28:51;15.88;;;7.32;;
53271;SDS011;39160;48.580;7.756;2023-02-21T20:33:43;14.25;;;7.90;;
53271;SDS011;39160;48.580;7.756;2023-02-21T20:38:35;16.27;;;8.35;;
53271;SDS011;39160;48.580;7.756;2023-02-21T20:43:26;14.68;;;7.90;;
53271;SDS011;39160;48.580;7.756;2023-02-21T20:48:18;15.68;;;7.97;;
53271;SDS011;39160;48.580;7.756;2023-02-21T20:53:09;19.83;;;9.10;;
53271;SDS011;39160;48.580;7.756;2023-02-21T20:58:00;13.27;;;7.45;;
53271;SDS011;39160;48.580;7.756;2023-02-21T21:02:51;17.10;;;8.70;;
53271;SDS011;39160;48.580;7.756;2023-02-21T21:07:42;19.13;;;10.07;;
53271;SDS011;39160;48.580;7.756;2023-02-21T21:12:34;16.27;;;8.02;;
53271;SDS011;39160;48.580;7.756;2023-02-21T21:17:25;14.88;;;9.30;;
53271;SDS011;39160;48.580;7.756;2023-02-21T21:22:17;14.77;;;8.60;;
53271;SDS011;39160;48.580;7.756;2023-02-21T21:27:09;12.93;;;7.95;;
53271;SDS011;39160;48.580;7.756;2023-02-21T21:32:04;9.57;;;6.60;;
53271;SDS011;39160;48.580;7.756;2023-02-21T21:36:56;14.05;;;7.13;;
53271;SDS011;39160;48.580;7.756;2023-02-21T21:41:58;61.28;;;31.65;;
53271;SDS011;39160;48.580;7.756;2023-02-21T21:46:57;33.25;;;17.45;;
53271;SDS011;39160;48.580;7.756;2023-02-21T21:51:49;15.25;;;8.68;;
53271;SDS011;39160;48.580;7.756;2023-02-21T21:56:40;13.90;;;8.25;;
53271;SDS011;39160;48.580;7.756;2023-02-21T22:01:31;18.30;;;8.18;;
53271;SDS011;39160;48.580;7.756;2023-02-21T22:06:22;13.82;;;7.50;;
53271;SDS011;39160;48.580;7.756;2023-02-21T22:11:12;23.35;;;8.65;;
53271;SDS011;39160;48.580;7.756;2023-02-21T22:16:04;17.17;;;8.63;;
53271;SDS011;39160;48.580;7.756;2023-02-21T22:20:55;15.98;;;8.95;;
53271;SDS011;39160;48.580;7.756;2023-02-21T22:25:45;15.65;;;8.77;;
53271;SDS011;39160;48.580;7.756;2023-02-21T22:30:37;16.20;;;9.15;;
53271;SDS011;39160;48.580;7.756;2023-02-21T22:35:29;17.25;;;9.77;;
53271;SDS011;39160;48.580;7.756;2023-02-21T22:40:21;16.83;;;9.75;;
53271;SDS011;39160;48.580;7.756;2023-02-21T22:45:13;23.08;;;10.65;;
53271;SDS011;39160;48.580;7.756;2023-02-21T22:50:06;19.85;;;10.63;;
53271;SDS011;39160;48.580;7.756;2023-02-21T22:54:56;15.93;;;9.95;;
53271;SDS011;39160;48.580;7.756;2023-02-21T22:59:47;17.52;;;9.63;;
53271;SDS011;39160;48.580;7.756;2023-02-21T23:04:40;20.60;;;9.50;;
53271;SDS011;39160;48.580;7.756;2023-02-21T23:09:30;23.17;;;10.05;;
53271;SDS011;39160;48.580;7.756;2023-02-21T23:14:26;19.77;;;9.13;;
53271;SDS011;39160;48.580;7.756;2023-02-21T23:19:20;16.85;;;8.80;;
53271;SDS011;39160;48.580;7.756;2023-02-21T23:24:12;19.00;;;9.80;;
53271;SDS011;39160;48.580;7.756;2023-02-21T23:29:04;19.52;;;10.15;;
53271;SDS011;39160;48.580;7.756;2023-02-21T23:33:55;15.00;;;8.48;;
53271;SDS011;39160;48.580;7.756;2023-02-21T23:38:46;16.88;;;10.02;;
53271;SDS011;39160;48.580;7.756;2023-02-21T23:43:39;22.35;;;10.32;;
53271;SDS011;39160;48.580;7.756;2023-02-21T23:48:30;18.58;;;8.30;;
53271;SDS011;39160;48.580;7.756;2023-02-21T23:53:21;14.65;;;7.88;;
53271;SDS011;39160;48.580;7.756;2023-02-21T23:58:16;12.90;;;9.05;;
